createdAt,value
2022-10-19T00:00:32.116Z,5.10
2022-10-19T00:02:59.394Z,5.63
2022-10-19T00:05:26.225Z,5.40
2022-10-19T00:07:54.411Z,5.77
2022-10-19T00:10:21.362Z,6.07
2022-10-19T00:15:20.380Z,6.33
2022-10-19T00:17:47.044Z,6.00
2022-10-19T00:20:13.745Z,5.63
2022-10-19T00:22:40.401Z,6.10
2022-10-19T00:25:07.878Z,5.97
2022-10-19T00:27:35.509Z,5.93
2022-10-19T00:30:02.330Z,5.67
2022-10-19T00:32:28.948Z,6.10
2022-10-19T00:34:55.559Z,6.00
2022-10-19T00:37:22.446Z,5.53
2022-10-19T00:42:20.964Z,5.87
2022-10-19T00:44:47.746Z,5.40
2022-10-19T00:47:15.551Z,5.53
2022-10-19T00:49:45.322Z,5.60
2022-10-19T00:52:16.316Z,5.30
2022-10-19T00:54:45.690Z,6.23
2022-10-19T00:57:13.382Z,6.37
2022-10-19T00:59:43.112Z,5.67
2022-10-19T01:02:09.778Z,6.03
2022-10-19T01:04:40.102Z,6.87
2022-10-19T01:07:08.010Z,5.33
2022-10-19T01:09:35.274Z,5.97
2022-10-19T01:12:10.573Z,6.10
2022-10-19T01:14:56.224Z,5.93
2022-10-19T01:17:39.737Z,5.03
2022-10-19T01:20:27.473Z,4.93
2022-10-19T01:23:13.359Z,6.27
2022-10-19T01:25:46.638Z,5.27
2022-10-19T01:28:13.297Z,5.93
2022-10-19T01:30:55.990Z,5.07
2022-10-19T01:33:47.442Z,5.83
2022-10-19T01:36:36.710Z,5.13
2022-10-19T01:39:18.682Z,5.07
2022-10-19T01:42:00.279Z,4.90
2022-10-19T01:44:42.680Z,5.43
2022-10-19T01:47:15.562Z,4.70
2022-10-19T01:49:49.074Z,5.17
2022-10-19T01:52:19.637Z,4.97
2022-10-19T01:54:50.472Z,4.87
2022-10-19T01:57:23.957Z,4.63
2022-10-19T01:59:51.649Z,4.23
2022-10-19T02:02:19.727Z,4.37
2022-10-19T02:04:49.077Z,4.70
2022-10-19T02:07:16.544Z,4.23
2022-10-19T02:09:43.541Z,4.73
2022-10-19T02:12:12.433Z,3.83
2022-10-19T02:14:44.267Z,4.00
2022-10-19T02:17:18.178Z,4.40
2022-10-19T02:19:44.838Z,4.67
2022-10-19T02:22:12.999Z,4.53
2022-10-19T02:24:40.009Z,4.47
2022-10-19T02:27:08.431Z,4.47
2022-10-19T02:29:37.741Z,4.20
2022-10-19T02:32:05.166Z,4.23
2022-10-19T02:34:32.644Z,3.90
2022-10-19T02:36:59.477Z,3.60
2022-10-19T02:39:26.404Z,3.70
2022-10-19T02:42:12.065Z,3.83
2022-10-19T02:44:53.559Z,3.97
2022-10-19T02:47:26.030Z,3.73
2022-10-19T02:49:53.610Z,3.53
2022-10-19T02:52:20.242Z,3.70
2022-10-19T02:54:47.087Z,3.40
2022-10-19T02:57:25.366Z,3.80
2022-10-19T02:59:52.706Z,3.10
2022-10-19T03:02:20.514Z,3.77
2022-10-19T03:07:21.040Z,3.67
2022-10-19T03:09:47.794Z,3.47
2022-10-19T03:12:15.701Z,3.50
2022-10-19T03:14:43.227Z,2.90
2022-10-19T03:17:10.006Z,2.97
2022-10-19T03:19:37.725Z,3.57
2022-10-19T03:22:04.689Z,3.70
2022-10-19T03:24:31.821Z,4.13
2022-10-19T03:26:58.524Z,3.43
2022-10-19T03:29:25.184Z,3.07
2022-10-19T03:31:52.058Z,3.47
2022-10-19T03:34:18.680Z,3.37
2022-10-19T03:36:45.925Z,3.37
2022-10-19T03:39:14.841Z,3.73
2022-10-19T03:41:41.861Z,3.50
2022-10-19T03:44:09.898Z,2.93
2022-10-19T03:46:37.593Z,3.37
2022-10-19T03:49:04.627Z,3.90
2022-10-19T03:51:32.712Z,3.37
2022-10-19T03:54:04.285Z,3.50
2022-10-19T03:56:32.108Z,3.00
2022-10-19T03:59:00.286Z,4.07
2022-10-19T04:01:34.503Z,3.33
2022-10-19T04:04:03.631Z,3.20
2022-10-19T04:06:36.584Z,3.70
2022-10-19T04:09:04.511Z,3.50
2022-10-19T04:11:32.416Z,3.47
2022-10-19T04:13:59.710Z,3.63
2022-10-19T04:16:28.039Z,3.90
2022-10-19T04:18:54.967Z,3.83
2022-10-19T04:21:29.073Z,3.33
2022-10-19T04:24:08.219Z,3.43
2022-10-19T04:26:39.918Z,2.73
2022-10-19T04:29:06.591Z,3.23
2022-10-19T04:31:33.208Z,2.93
2022-10-19T04:34:01.457Z,3.00
2022-10-19T04:36:28.092Z,2.90
2022-10-19T04:38:55.072Z,2.60
2022-10-19T04:41:22.881Z,2.77
2022-10-19T04:43:54.369Z,2.73
2022-10-19T04:46:21.024Z,2.67
2022-10-19T04:48:48.482Z,2.63
2022-10-19T04:51:16.729Z,2.50
2022-10-19T04:53:44.200Z,2.73
2022-10-19T04:56:22.887Z,2.83
2022-10-19T04:58:49.650Z,2.47
2022-10-19T05:01:18.912Z,2.57
2022-10-19T05:03:46.660Z,2.73
2022-10-19T05:06:14.626Z,2.37
2022-10-19T05:08:41.853Z,3.20
2022-10-19T05:11:14.499Z,2.43
2022-10-19T05:13:42.477Z,2.27
2022-10-19T05:16:13.602Z,2.27
2022-10-19T05:18:40.370Z,2.50
2022-10-19T05:21:10.219Z,2.60
2022-10-19T05:23:37.863Z,2.10
2022-10-19T05:26:11.902Z,2.57
2022-10-19T05:28:38.984Z,2.37
2022-10-19T05:31:27.332Z,2.50
2022-10-19T05:33:55.954Z,2.20
2022-10-19T05:36:35.158Z,2.80
2022-10-19T05:39:08.437Z,2.10
2022-10-19T05:41:35.329Z,2.50
2022-10-19T05:44:03.130Z,2.60
2022-10-19T05:46:30.545Z,2.47
2022-10-19T05:48:58.661Z,2.47
2022-10-19T05:51:27.562Z,2.50
2022-10-19T05:53:55.868Z,2.50
2022-10-19T05:56:28.106Z,2.57
2022-10-19T05:58:59.832Z,2.30
2022-10-19T06:01:28.406Z,2.63
2022-10-19T06:03:57.208Z,2.60
2022-10-19T06:06:24.801Z,2.73
2022-10-19T06:08:53.021Z,2.83
2022-10-19T06:11:26.385Z,2.90
2022-10-19T06:13:55.790Z,2.63
2022-10-19T06:16:24.000Z,2.67
2022-10-19T06:18:50.974Z,2.73
2022-10-19T06:21:19.397Z,3.00
2022-10-19T06:23:54.189Z,2.70
2022-10-19T06:26:21.367Z,2.97
2022-10-19T06:28:48.289Z,2.63
2022-10-19T06:31:16.014Z,2.83
2022-10-19T06:33:47.278Z,3.27
2022-10-19T06:36:19.668Z,3.10
2022-10-19T06:38:46.744Z,2.60
2022-10-19T06:41:13.790Z,3.13
2022-10-19T06:43:42.787Z,2.97
2022-10-19T06:46:12.450Z,2.43
2022-10-19T06:48:39.171Z,3.03
2022-10-19T06:51:07.715Z,3.00
2022-10-19T06:53:35.744Z,3.17
2022-10-19T06:56:05.753Z,2.73
2022-10-19T06:58:39.175Z,3.13
2022-10-19T07:01:11.795Z,3.03
2022-10-19T07:03:38.530Z,2.83
2022-10-19T07:06:08.364Z,2.97
2022-10-19T07:08:36.825Z,3.03
2022-10-19T07:11:07.473Z,2.90
2022-10-19T07:13:34.915Z,2.83
2022-10-19T07:16:07.243Z,3.07
2022-10-19T07:18:35.697Z,2.93
2022-10-19T07:21:05.297Z,3.17
2022-10-19T07:26:23.911Z,2.67
2022-10-19T07:28:51.259Z,2.87
2022-10-19T07:31:20.675Z,3.23
2022-10-19T07:33:51.214Z,3.60
2022-10-19T07:36:18.147Z,3.57
2022-10-19T07:38:44.955Z,3.57
2022-10-19T07:41:14.130Z,3.17
2022-10-19T07:43:42.459Z,3.50
2022-10-19T07:46:12.614Z,3.63
2022-10-19T07:48:39.969Z,3.60
2022-10-19T07:51:08.053Z,3.53
2022-10-19T07:53:35.872Z,4.00
2022-10-19T07:56:07.766Z,4.07
2022-10-19T07:58:36.389Z,4.23
2022-10-19T08:01:06.233Z,3.77
2022-10-19T08:06:21.896Z,3.97
2022-10-19T08:08:50.014Z,3.97
2022-10-19T08:11:20.018Z,3.80
2022-10-19T08:13:47.234Z,4.00
2022-10-19T08:16:44.510Z,3.63
2022-10-19T08:19:13.601Z,3.40
2022-10-19T08:21:42.429Z,3.50
2022-10-19T08:24:10.315Z,3.60
2022-10-19T08:26:38.864Z,4.13
2022-10-19T08:29:35.361Z,4.10
2022-10-19T08:32:02.342Z,3.67
2022-10-19T08:34:28.933Z,3.20
2022-10-19T08:36:56.188Z,3.80
2022-10-19T08:39:22.874Z,3.20
2022-10-19T08:42:00.963Z,2.37
2022-10-19T08:44:48.997Z,2.27
2022-10-19T08:47:31.194Z,2.25
2022-10-19T08:49:59.770Z,2.08
2022-10-19T08:52:34.600Z,2.17
2022-10-19T08:55:09.177Z,2.05
2022-10-19T08:58:01.708Z,1.60
2022-10-19T09:00:53.238Z,1.55
2022-10-19T09:03:32.028Z,1.20
2022-10-19T09:06:20.702Z,1.80
2022-10-19T09:08:50.319Z,1.80
2022-10-19T09:11:22.473Z,1.60
2022-10-19T09:14:04.717Z,1.45
2022-10-19T09:16:33.181Z,1.27
2022-10-19T09:18:59.858Z,1.50
2022-10-19T09:21:46.119Z,1.60
2022-10-19T09:24:38.525Z,1.23
2022-10-19T09:27:10.833Z,1.63
2022-10-19T09:29:42.155Z,1.20
2022-10-19T09:32:20.062Z,1.40
2022-10-19T09:34:54.921Z,1.05
2022-10-19T09:37:26.636Z,1.30
2022-10-19T09:39:55.545Z,1.13
2022-10-19T09:42:33.675Z,1.15
2022-10-19T09:45:31.404Z,1.02
2022-10-19T09:48:08.668Z,1.10
2022-10-19T09:50:44.451Z,1.27
2022-10-19T09:53:20.505Z,1.00
2022-10-19T09:56:20.967Z,1.00
2022-10-19T09:58:50.881Z,0.80
2022-10-19T10:01:43.130Z,0.90
2022-10-19T10:04:14.388Z,0.90
2022-10-19T10:06:42.690Z,1.30
2022-10-19T10:09:22.097Z,0.95
2022-10-19T10:11:50.905Z,0.98
2022-10-19T10:14:20.830Z,1.20
2022-10-19T10:16:47.713Z,0.82
2022-10-19T10:19:16.868Z,0.90
2022-10-19T10:21:49.964Z,0.90
2022-10-19T10:24:19.498Z,1.13
2022-10-19T10:26:49.450Z,0.80
2022-10-19T10:29:20.538Z,1.20
2022-10-19T10:32:16.277Z,0.98
2022-10-19T10:35:02.858Z,1.15
2022-10-19T10:37:40.453Z,1.38
2022-10-19T10:40:29.784Z,0.80
2022-10-19T10:43:01.805Z,1.00
2022-10-19T10:45:53.565Z,1.20
2022-10-19T10:48:39.723Z,1.33
2022-10-19T10:51:20.871Z,1.02
2022-10-19T10:53:48.341Z,0.90
2022-10-19T10:56:29.012Z,1.33
2022-10-19T10:59:12.923Z,1.60
2022-10-19T11:02:11.433Z,0.95
2022-10-19T11:04:47.404Z,0.82
2022-10-19T11:07:28.221Z,0.85
2022-10-19T11:10:03.790Z,0.82
2022-10-19T11:12:43.830Z,0.93
2022-10-19T11:15:26.111Z,1.10
2022-10-19T11:18:16.223Z,1.20
2022-10-19T11:21:08.268Z,0.93
2022-10-19T11:23:42.458Z,0.80
2022-10-19T11:26:24.110Z,0.90
2022-10-19T11:29:13.425Z,1.00
2022-10-19T11:31:47.166Z,0.90
2022-10-19T11:34:39.738Z,1.20
2022-10-19T11:37:30.694Z,0.90
2022-10-19T11:40:22.078Z,0.98
2022-10-19T11:42:52.039Z,1.17
2022-10-19T11:45:24.322Z,0.75
2022-10-19T11:48:16.326Z,0.88
2022-10-19T11:51:17.005Z,0.80
2022-10-19T11:54:06.041Z,1.00
2022-10-19T11:57:01.805Z,0.75
2022-10-19T11:59:52.725Z,0.98
2022-10-19T12:02:42.703Z,0.77
2022-10-19T12:05:16.165Z,0.70
2022-10-19T12:08:12.014Z,1.00
2022-10-19T12:11:01.976Z,1.00
2022-10-19T12:14:00.313Z,0.70
2022-10-19T12:16:37.504Z,0.95
2022-10-19T12:19:07.127Z,1.23
2022-10-19T12:21:37.942Z,0.98
2022-10-19T12:24:12.556Z,0.85
2022-10-19T12:26:40.770Z,0.73
2022-10-19T12:29:15.547Z,0.93
2022-10-19T12:31:42.732Z,0.90
2022-10-19T12:34:24.794Z,1.20
2022-10-19T12:37:02.598Z,0.80
2022-10-19T12:39:43.064Z,0.90
2022-10-19T12:42:32.854Z,1.30
2022-10-19T12:45:26.997Z,0.82
2022-10-19T12:48:08.513Z,1.00
2022-10-19T12:50:57.154Z,0.82
2022-10-19T12:53:30.773Z,1.17
2022-10-19T12:56:12.440Z,0.90
2022-10-19T12:58:46.590Z,0.80
2022-10-19T13:01:20.161Z,0.98
2022-10-19T13:03:49.834Z,0.82
2022-10-19T13:06:30.816Z,0.70
2022-10-19T13:09:01.523Z,1.10
2022-10-19T13:11:28.496Z,0.95
2022-10-19T13:14:01.939Z,0.98
2022-10-19T13:16:28.534Z,1.00
2022-10-19T13:19:13.500Z,0.90
2022-10-19T13:21:47.392Z,1.10
2022-10-19T13:24:26.494Z,1.20
2022-10-19T13:27:03.138Z,1.25
2022-10-19T13:29:40.222Z,1.20
2022-10-19T13:32:32.125Z,1.25
2022-10-19T13:35:21.116Z,1.20
2022-10-19T13:38:18.822Z,1.20
2022-10-19T13:40:48.625Z,1.10
2022-10-19T13:43:43.846Z,1.20
2022-10-19T13:46:13.499Z,1.33
2022-10-19T13:49:02.440Z,1.15
2022-10-19T13:52:03.285Z,1.60
2022-10-19T13:55:07.652Z,1.33
2022-10-19T13:58:05.412Z,1.15
2022-10-19T14:01:10.712Z,1.38
2022-10-19T14:04:05.052Z,1.17
2022-10-19T14:06:49.334Z,1.48
2022-10-19T14:09:48.456Z,1.20
2022-10-19T14:12:27.685Z,1.30
2022-10-19T14:14:55.219Z,1.10
2022-10-19T14:17:25.284Z,1.30
2022-10-19T14:19:55.344Z,1.60
2022-10-19T14:22:35.954Z,1.42
2022-10-19T14:25:17.615Z,1.60
2022-10-19T14:27:46.105Z,1.20
2022-10-19T14:30:32.309Z,1.35
2022-10-19T14:33:02.390Z,1.13
2022-10-19T14:35:38.153Z,1.50
2022-10-19T14:38:15.477Z,1.30
2022-10-19T14:40:42.717Z,1.30
2022-10-19T14:43:29.143Z,0.93
2022-10-19T14:46:15.273Z,1.00
2022-10-19T14:48:48.400Z,1.23
2022-10-19T14:51:21.399Z,1.10
2022-10-19T14:54:01.273Z,1.20
2022-10-19T14:56:43.021Z,1.30
2022-10-19T14:59:32.038Z,1.60
2022-10-19T15:02:02.524Z,1.03
2022-10-19T15:04:33.699Z,1.10
2022-10-19T15:07:04.190Z,1.10
2022-10-19T15:09:47.704Z,1.30
2022-10-19T15:12:19.230Z,1.30
2022-10-19T15:14:47.941Z,1.00
2022-10-19T15:17:30.078Z,1.33
2022-10-19T15:20:01.553Z,1.30
2022-10-19T15:22:31.441Z,1.43
2022-10-19T15:25:07.466Z,1.70
2022-10-19T15:27:39.828Z,1.30
2022-10-19T15:30:27.914Z,1.40
2022-10-19T15:33:13.036Z,1.50
2022-10-19T15:35:42.517Z,1.70
2022-10-19T15:38:23.084Z,1.97
2022-10-19T15:40:57.579Z,1.97
2022-10-19T15:43:30.509Z,2.20
2022-10-19T15:46:02.244Z,1.70
2022-10-19T15:48:44.793Z,1.77
2022-10-19T15:51:23.501Z,1.97
2022-10-19T15:53:57.999Z,2.10
2022-10-19T15:56:33.469Z,1.57
2022-10-19T15:59:02.904Z,1.27
2022-10-19T16:01:32.126Z,1.60
2022-10-19T16:04:00.163Z,1.50
2022-10-19T16:06:30.557Z,1.60
2022-10-19T16:09:00.262Z,1.40
2022-10-19T16:11:28.874Z,1.40
2022-10-19T16:13:55.903Z,1.50
2022-10-19T16:16:25.397Z,1.60
2022-10-19T16:18:53.153Z,1.80
2022-10-19T16:21:22.690Z,1.70
2022-10-19T16:23:49.502Z,1.80
2022-10-19T16:26:17.131Z,1.63
2022-10-19T16:28:44.545Z,1.70
2022-10-19T16:31:12.239Z,1.67
2022-10-19T16:33:38.941Z,2.27
2022-10-19T16:36:07.057Z,1.57
2022-10-19T16:38:34.346Z,1.80
2022-10-19T16:41:03.512Z,2.37
2022-10-19T16:43:30.575Z,2.70
2022-10-19T16:45:57.820Z,2.33
2022-10-19T16:48:24.758Z,2.40
2022-10-19T16:51:06.896Z,1.83
2022-10-19T16:53:38.015Z,1.70
2022-10-19T16:56:09.313Z,1.77
2022-10-19T16:58:37.372Z,2.10
2022-10-19T17:01:12.437Z,1.87
2022-10-19T17:03:39.446Z,1.77
2022-10-19T17:06:07.392Z,2.40
2022-10-19T17:09:07.407Z,1.90
2022-10-19T17:11:23.089Z,1.73
2022-10-19T17:13:52.085Z,2.10
2022-10-19T17:16:20.610Z,2.00
2022-10-19T17:18:47.798Z,2.03
2022-10-19T17:21:18.708Z,1.97
2022-10-19T17:23:45.866Z,2.07
2022-10-19T17:26:13.707Z,2.00
2022-10-19T17:28:40.648Z,1.90
2022-10-19T17:31:13.293Z,2.13
2022-10-19T17:33:40.950Z,2.00
2022-10-19T17:36:13.521Z,1.80
2022-10-19T17:38:40.887Z,1.60
2022-10-19T17:41:13.329Z,2.07
2022-10-19T17:43:41.794Z,2.03
2022-10-19T17:46:11.973Z,1.80
2022-10-19T17:48:40.171Z,1.30
2022-10-19T17:51:19.038Z,1.80
2022-10-19T17:53:47.779Z,2.00
2022-10-19T17:56:19.504Z,2.00
2022-10-19T17:58:46.522Z,1.70
2022-10-19T18:01:14.241Z,1.80
2022-10-19T18:03:41.428Z,2.03
2022-10-19T18:06:14.442Z,1.60
2022-10-19T18:08:43.956Z,1.97
2022-10-19T18:11:22.654Z,1.97
2022-10-19T18:13:52.116Z,1.73
2022-10-19T18:16:25.197Z,1.70
2022-10-19T18:18:54.998Z,1.70
2022-10-19T18:21:25.354Z,1.60
2022-10-19T18:23:53.597Z,1.80
2022-10-19T18:26:22.508Z,2.07
2022-10-19T18:28:52.436Z,1.87
2022-10-19T18:31:21.914Z,1.60
2022-10-19T18:33:54.494Z,1.70
2022-10-19T18:36:21.304Z,1.57
2022-10-19T18:38:56.629Z,2.17
2022-10-19T18:41:24.233Z,1.73
2022-10-19T18:43:57.078Z,1.90
2022-10-19T18:46:25.684Z,1.77
2022-10-19T18:48:53.088Z,1.70
2022-10-19T18:51:20.859Z,1.70
2022-10-19T18:53:47.713Z,1.57
2022-10-19T18:56:17.501Z,1.53
2022-10-19T18:58:45.017Z,1.67
2022-10-19T19:01:18.318Z,1.30
2022-10-19T19:03:49.794Z,1.33
2022-10-19T19:06:25.345Z,1.60
2022-10-19T19:09:00.851Z,1.80
2022-10-19T19:11:34.266Z,2.30
2022-10-19T19:14:12.120Z,1.70
2022-10-19T19:16:39.821Z,1.83
2022-10-19T19:19:07.110Z,1.80
2022-10-19T19:21:35.636Z,2.23
2022-10-19T19:24:04.822Z,1.93
2022-10-19T19:26:34.560Z,1.73
2022-10-19T19:29:02.389Z,1.80
2022-10-19T19:31:29.902Z,1.90
2022-10-19T19:33:59.733Z,2.20
2022-10-19T19:36:27.956Z,1.90
2022-10-19T19:38:56.112Z,2.27
2022-10-19T19:41:23.107Z,2.43
2022-10-19T19:43:50.060Z,2.83
2022-10-19T19:46:19.445Z,2.57
2022-10-19T19:48:48.582Z,2.50
2022-10-19T19:51:20.779Z,2.60
2022-10-19T19:53:48.317Z,2.40
2022-10-19T19:56:16.265Z,2.20
2022-10-19T19:58:44.144Z,2.00
2022-10-19T20:01:19.451Z,1.67
2022-10-19T20:03:47.004Z,1.97
2022-10-19T20:06:15.976Z,2.33
2022-10-19T20:08:42.858Z,2.50
2022-10-19T20:11:12.142Z,3.10
2022-10-19T20:13:39.283Z,2.83
2022-10-19T20:16:12.566Z,3.47
2022-10-19T20:18:47.352Z,2.20
2022-10-19T20:21:14.784Z,2.00
2022-10-19T20:23:45.686Z,2.00
2022-10-19T20:26:16.582Z,2.10
2022-10-19T20:28:43.213Z,2.03
2022-10-19T20:31:11.017Z,2.20
2022-10-19T20:33:39.008Z,1.83
2022-10-19T20:36:07.148Z,1.93
2022-10-19T20:38:35.561Z,1.80
2022-10-19T20:41:08.233Z,1.97
2022-10-19T20:43:36.418Z,1.90
2022-10-19T20:46:17.919Z,2.30
2022-10-19T20:48:45.344Z,2.20
2022-10-19T20:51:30.560Z,2.47
2022-10-19T20:54:01.048Z,2.23
2022-10-19T20:56:34.225Z,1.90
2022-10-19T21:01:37.733Z,1.90
2022-10-19T21:04:06.531Z,2.20
2022-10-19T21:06:34.974Z,1.77
2022-10-19T21:09:01.917Z,1.63
2022-10-19T21:11:31.395Z,2.10
2022-10-19T21:14:07.174Z,2.07
2022-10-19T21:16:35.223Z,2.07
2022-10-19T21:19:04.429Z,1.97
2022-10-19T21:21:34.053Z,2.00
2022-10-19T21:24:10.049Z,2.30
2022-10-19T21:26:37.319Z,1.93
2022-10-19T21:29:05.526Z,1.47
2022-10-19T21:31:32.288Z,1.83
2022-10-19T21:33:58.921Z,2.00
2022-10-19T21:36:25.751Z,2.13
2022-10-19T21:38:52.406Z,2.17
2022-10-19T21:41:23.875Z,3.30
2022-10-19T21:43:53.842Z,2.03
2022-10-19T21:46:22.250Z,2.17
2022-10-19T21:48:50.262Z,2.07
2022-10-19T21:51:16.837Z,1.83
2022-10-19T21:53:44.434Z,2.37
2022-10-19T21:56:11.213Z,1.97
2022-10-19T21:58:38.003Z,2.60
2022-10-19T22:01:08.274Z,2.20
2022-10-19T22:03:34.931Z,2.17
2022-10-19T22:06:01.852Z,2.20
2022-10-19T22:08:28.796Z,2.43
2022-10-19T22:10:55.685Z,2.37
2022-10-19T22:13:22.312Z,2.27
2022-10-19T22:15:49.006Z,2.60
2022-10-19T22:18:15.809Z,2.37
2022-10-19T22:20:42.457Z,2.30
2022-10-19T22:23:09.238Z,2.23
2022-10-19T22:25:36.151Z,2.23
2022-10-19T22:28:03.360Z,2.20
2022-10-19T22:30:30.022Z,2.40
2022-10-19T22:32:56.931Z,2.30
2022-10-19T22:35:23.692Z,2.33
2022-10-19T22:37:50.494Z,2.47
2022-10-19T22:40:17.176Z,2.37
2022-10-19T22:42:43.888Z,2.47
2022-10-19T22:45:10.670Z,2.53
2022-10-19T22:47:37.332Z,2.50
2022-10-19T22:50:04.543Z,2.00
2022-10-19T22:52:31.182Z,2.27
2022-10-19T22:54:58.062Z,2.07
2022-10-19T22:57:24.720Z,2.13
2022-10-19T22:59:51.575Z,2.37
2022-10-19T23:02:18.206Z,2.40
2022-10-19T23:04:45.008Z,2.43
2022-10-19T23:09:43.482Z,2.33
2022-10-19T23:12:10.176Z,2.27
2022-10-19T23:14:36.871Z,2.33
2022-10-19T23:17:03.565Z,2.50
2022-10-19T23:19:30.397Z,2.20
2022-10-19T23:21:57.003Z,2.53
2022-10-19T23:24:24.132Z,2.37
2022-10-19T23:26:50.792Z,2.63
2022-10-19T23:29:17.684Z,2.67
2022-10-19T23:31:44.287Z,2.20
2022-10-19T23:34:10.973Z,2.73
2022-10-19T23:36:37.863Z,2.30
2022-10-19T23:39:04.596Z,2.40
2022-10-19T23:41:31.982Z,2.70
2022-10-19T23:43:58.642Z,2.57
2022-10-19T23:46:25.542Z,2.60
2022-10-19T23:48:52.134Z,2.43
2022-10-19T23:51:21.273Z,2.77
2022-10-19T23:53:50.153Z,2.57
2022-10-19T23:56:23.129Z,2.97
2022-10-19T23:58:50.753Z,3.00
